Terminal Aerodrome Forecast
Issued by NWS

Home | Current Version | Previous Version | Text Only | Print | Product List | Glossary Off
Versions: 1 2 3 4 5 6 7 8 9 10 11 12 13 14 15 16 17 18 19 20 21 22 23 24 25

000
FTUS43 KGRB 222300
TAFATW
TAF
KATW 222331Z 2300/2324 09005KT P6SM BKN025
     FM230400 VRB03KT 4SM BR BKN018
     FM230700 VRB03KT 3SM BR OVC006
      TEMPO 2309/2313 1/2SM FG OVC002
     FM231500 08006KT 6SM BR BKN010 OVC018
     FM231800 08007KT P6SM BKN030=

USA.gov is the U.S. government's official web portal to all federal, state and local government web resources and services.